PILOTS ONLINE: 461    ATC ONLINE: 63

KSNA - John Wayne Airport-Orange County Airport

Location

IATA SNA
City Santa Ana
Country  United States
Latitude 33° 40' 32" N
Longitude 117° 52' 4" W
Elevation 56 ft
Type Large Airport

Runways

01L/19R 5700 ft / 150 ft
01R/19L 2887 ft / 75 ft

Weather

METAR
2014/07/31 20:53
KSNA 312053Z 26005KT 10SM FEW040 SCT150 SCT300 28/17 A2990 RMK AO2 SLP123 CB DSNT NE TCU DSNT N T02830172 56012
TAF
2014/07/31 18:27
TAF KSNA 311722Z 3118/0118 22005KT P6SM FEW015 
     FM312000 22008KT P6SM SCT200 
     FM010200 VRB05KT P6SM FEW010 SCT200 
     FM011200 VRB03KT P6SM BKN009 
     FM011500 VRB03KT P6SM SCT012 SCT200

Outbound flights

Inbound flights